Time;durP1;ratioP1;P1;durP2;ratioP2;P2;SDS_P1;SDS_P2;PMS_P1;PMS_P2;Temp;Humidity;BMP_temperature;BMP_pressure;BME280_temperature;BME280_humidity;BME280_pressure;Samples;Min_cycle;Max_cycle;Signal;HPM_P1;HPM_P2
2022/06/28 00:00:38;;;;;;;4.18;2.97;;;20.90;99.90;20.90;100843.00;;;;4933460;28;91857;-61
2022/06/28 00:03:04;;;;;;;2.50;2.25;;;20.80;99.90;20.90;100845.00;;;;4936139;28;87117;-61
2022/06/28 00:05:30;;;;;;;3.78;1.73;;;20.80;99.90;20.70;100857.00;;;;4935170;28;88691;-61
2022/06/28 00:07:57;;;;;;;3.58;2.88;;;20.60;99.90;20.50;100866.00;;;;4933913;28;117953;-60
2022/06/28 00:10:23;;;;;;;5.47;3.05;;;20.50;99.90;20.30;100890.00;;;;4934284;28;110209;-61
2022/06/28 00:12:49;;;;;;;3.83;2.95;;;20.30;99.90;20.00;100903.00;;;;4935357;28;87101;-62
2022/06/28 00:18:00;;;;;;;3.55;3.25;;;19.80;99.90;19.50;100918.00;;;;4934644;28;88462;-65
2022/06/28 00:20:26;;;;;;;5.30;3.00;;;19.60;99.90;19.40;100909.00;;;;4934383;28;98447;-64
2022/06/28 00:22:52;;;;;;;4.50;3.88;;;19.40;99.90;19.20;100864.00;;;;4917692;28;87445;-65
2022/06/28 00:25:17;;;;;;;6.30;3.90;;;19.20;99.90;19.10;100856.00;;;;4934385;28;116592;-66
2022/06/28 00:27:43;;;;;;;3.55;2.97;;;19.10;99.90;19.00;100867.00;;;;4933750;28;112925;-65
2022/06/28 00:30:10;;;;;;;5.13;3.83;;;18.90;99.90;18.90;100853.00;;;;4933932;28;102081;-64
2022/06/28 00:32:36;;;;;;;4.40;3.75;;;18.80;99.90;18.80;100869.00;;;;4934226;28;97959;-63
2022/06/28 00:35:03;;;;;;;5.72;3.67;;;18.80;99.90;18.80;100875.00;;;;4934795;28;114673;-63
2022/06/28 00:37:30;;;;;;;5.82;4.20;;;18.70;99.90;18.70;100897.00;;;;4934213;28;88107;-63
2022/06/28 00:39:56;;;;;;;3.65;3.20;;;18.60;99.90;18.60;100911.00;;;;4935428;28;87376;-63
2022/06/28 00:42:22;;;;;;;4.93;3.75;;;18.50;99.90;18.60;100914.00;;;;4933523;28;88286;-63
2022/06/28 00:44:48;;;;;;;4.13;3.70;;;18.50;99.90;18.50;100916.00;;;;4934771;28;87603;-63
2022/06/28 00:47:15;;;;;;;4.75;4.10;;;18.40;99.90;18.50;100932.00;;;;4934379;28;91586;-63
2022/06/28 00:49:42;;;;;;;3.90;3.20;;;18.40;99.90;18.50;100933.00;;;;4940999;28;87420;-63
2022/06/28 00:52:11;;;;;;;3.70;3.33;;;18.30;99.90;18.40;100914.00;;;;4934221;28;87397;-62
2022/06/28 00:54:37;;;;;;;4.57;3.80;;;18.30;99.90;18.40;100901.00;;;;4935434;28;87783;-62
2022/06/28 00:57:04;;;;;;;5.45;4.47;;;18.30;99.90;18.40;100907.00;;;;4933150;28;98525;-62
2022/06/28 00:59:29;;;;;;;11.18;5.05;;;18.20;99.90;18.30;100902.00;;;;4934477;28;86208;-63
2022/06/28 01:02:00;;;;;;;6.43;3.97;;;18.20;99.90;18.30;100898.00;;;;4924343;28;98563;-63
2022/06/28 01:04:26;;;;;;;6.13;3.70;;;18.20;99.90;18.30;100891.00;;;;4934690;28;90713;-63
2022/06/28 01:06:54;;;;;;;4.97;4.18;;;18.20;99.90;18.30;100891.00;;;;4933826;28;88811;-63
2022/06/28 01:09:20;;;;;;;7.32;4.53;;;18.10;99.90;18.30;100880.00;;;;4934738;28;86905;-63
2022/06/28 01:11:49;;;;;;;7.15;4.40;;;18.20;99.90;18.30;100860.00;;;;4934386;28;87310;-62
2022/06/28 01:14:15;;;;;;;4.60;3.10;;;18.10;99.90;18.20;100860.00;;;;4934894;28;87442;-63
2022/06/28 01:16:41;;;;;;;4.25;3.30;;;18.10;99.90;18.20;100855.00;;;;4915431;28;102672;-63
2022/06/28 01:19:10;;;;;;;4.25;3.83;;;18.10;99.90;18.20;100857.00;;;;4933980;28;87173;-63
2022/06/28 01:21:37;;;;;;;6.07;3.95;;;18.00;99.90;18.10;100844.00;;;;4934300;28;93422;-63
2022/06/28 01:24:04;;;;;;;5.45;3.70;;;18.00;99.90;18.10;100835.00;;;;4933277;28;87836;-63
2022/06/28 01:26:30;;;;;;;6.07;4.40;;;18.00;99.90;18.10;100846.00;;;;4934300;28;87351;-63
2022/06/28 01:28:56;;;;;;;6.80;3.83;;;18.00;99.90;18.10;100857.00;;;;4934621;28;87189;-64
2022/06/28 01:31:23;;;;;;;4.70;3.70;;;18.00;99.90;18.10;100866.00;;;;4933654;28;88662;-63
2022/06/28 01:33:53;;;;;;;5.97;3.85;;;18.00;99.90;18.10;100870.00;;;;4933173;28;110219;-63
2022/06/28 01:36:20;;;;;;;5.75;3.95;;;17.90;99.90;18.10;100877.00;;;;4933866;28;87345;-64
2022/06/28 01:38:47;;;;;;;7.75;4.68;;;17.90;99.90;18.10;100894.00;;;;4933987;28;87391;-64
2022/06/28 01:41:32;;;;;;;6.32;5.70;;;18.00;99.90;18.20;100916.00;;;;4934611;28;87493;-64
2022/06/28 01:43:59;;;;;;;7.15;5.72;;;18.00;99.90;18.10;100934.00;;;;4933790;28;88584;-63
2022/06/28 01:46:26;;;;;;;6.45;5.28;;;18.00;99.90;18.10;100919.00;;;;4933452;28;88292;-64
2022/06/28 01:48:51;;;;;;;7.32;5.00;;;18.00;99.90;18.10;100911.00;;;;4916708;28;86763;-64
2022/06/28 01:51:17;;;;;;;8.75;5.03;;;18.00;99.90;18.20;100910.00;;;;4934218;28;87864;-64
2022/06/28 01:53:43;;;;;;;6.28;5.57;;;18.00;99.90;18.20;100913.00;;;;4932978;28;116635;-64
2022/06/28 01:56:08;;;;;;;5.70;4.97;;;18.10;99.90;18.20;100916.00;;;;4931648;28;116974;-64
2022/06/28 01:58:34;;;;;;;7.05;5.28;;;18.10;99.90;18.30;100918.00;;;;4933062;28;109892;-63
2022/06/28 02:01:00;;;;;;;6.28;5.22;;;18.10;99.90;18.30;100939.00;;;;4934700;28;99991;-63
2022/06/28 02:03:25;;;;;;;5.97;4.53;;;18.10;99.90;18.30;100964.00;;;;4931072;28;117564;-63
2022/06/28 02:05:51;;;;;;;9.85;5.60;;;18.10;99.90;18.30;100966.00;;;;4932471;28;116276;-63
2022/06/28 02:08:17;;;;;;;11.65;6.00;;;18.10;99.90;18.20;100970.00;;;;4932173;28;109394;-63
2022/06/28 02:10:43;;;;;;;5.95;5.00;;;18.10;99.90;18.20;100974.00;;;;4932948;28;107438;-63
2022/06/28 02:13:08;;;;;;;7.20;5.97;;;18.10;99.90;18.20;100978.00;;;;4937672;28;87777;-63
2022/06/28 02:15:34;;;;;;;8.90;6.32;;;18.10;99.90;18.30;100974.00;;;;4936173;28;102145;-63
2022/06/28 02:18:00;;;;;;;5.10;4.60;;;18.10;99.90;18.30;100975.00;;;;4935541;28;110050;-63
2022/06/28 02:20:26;;;;;;;8.07;6.40;;;18.20;99.90;18.40;100973.00;;;;4936656;28;108406;-63
2022/06/28 02:22:52;;;;;;;6.03;4.88;;;18.20;99.90;18.40;100965.00;;;;4935593;28;100593;-63
2022/06/28 02:25:18;;;;;;;6.53;4.68;;;18.30;99.90;18.40;100974.00;;;;4937348;28;87488;-63
2022/06/28 02:27:44;;;;;;;9.27;6.18;;;18.20;99.90;18.50;100979.00;;;;4936653;28;86914;-63
2022/06/28 02:30:11;;;;;;;6.90;5.63;;;18.30;99.90;18.50;100981.00;;;;4937558;28;87320;-63
2022/06/28 02:32:36;;;;;;;8.75;6.28;;;18.30;99.90;18.50;100978.00;;;;4934208;28;107800;-63
2022/06/28 02:40:45;;;;;;;10.18;6.22;;;18.40;99.90;18.50;101000.00;;;;4905018;28;87400;-63
2022/06/28 02:43:10;;;;;;;9.32;5.70;;;18.30;99.90;18.40;101003.00;;;;4932676;28;116900;-63
2022/06/28 02:45:36;;;;;;;6.70;5.60;;;18.30;99.90;18.40;101004.00;;;;4935298;28;113048;-63
2022/06/28 02:48:03;;;;;;;8.05;5.50;;;18.30;99.90;18.40;101018.00;;;;4936486;28;87028;-63
2022/06/28 02:50:30;;;;;;;6.97;5.93;;;18.30;99.90;18.40;101000.00;;;;4936949;28;86974;-63
2022/06/28 02:52:55;;;;;;;5.97;5.22;;;18.30;99.90;18.40;101002.00;;;;4936171;28;88691;-63
2022/06/28 02:55:21;;;;;;;10.65;5.13;;;18.30;99.90;18.40;101001.00;;;;4935902;28;117828;-63
2022/06/28 02:57:47;;;;;;;6.60;5.97;;;18.30;99.90;18.50;100981.00;;;;4934914;28;111380;-62
2022/06/28 03:00:17;;;;;;;6.15;5.55;;;18.30;99.90;18.50;100975.00;;;;4936503;28;87507;-62
2022/06/28 03:02:45;;;;;;;8.23;6.43;;;18.40;99.90;18.50;100979.00;;;;4936064;28;87627;-62
2022/06/28 03:05:15;;;;;;;6.70;6.10;;;18.40;99.90;18.50;100990.00;;;;4936380;28;95440;-62
2022/06/28 03:07:42;;;;;;;8.68;5.70;;;18.40;99.90;18.50;100994.00;;;;4936290;28;87188;-63
2022/06/28 03:10:09;;;;;;;9.73;5.80;;;18.40;99.90;18.50;100990.00;;;;4937182;28;88117;-65
2022/06/28 03:12:35;;;;;;;5.57;5.07;;;18.40;99.90;18.50;101000.00;;;;4935591;28;87260;-62
2022/06/28 03:15:01;;;;;;;7.28;6.15;;;18.40;99.90;18.50;100999.00;;;;4936842;28;87513;-62
2022/06/28 03:17:27;;;;;;;8.80;7.07;;;18.40;99.90;18.50;100996.00;;;;4935294;28;101967;-62
2022/06/28 03:19:53;;;;;;;10.77;6.60;;;18.30;99.90;18.40;100995.00;;;;4936634;28;87406;-62
2022/06/28 03:22:19;;;;;;;11.70;6.07;;;18.30;99.90;18.40;100995.00;;;;4934010;28;117861;-62
2022/06/28 03:24:44;;;;;;;7.80;6.97;;;18.30;99.90;18.40;101002.00;;;;4935630;28;117087;-63
2022/06/28 03:27:10;;;;;;;7.18;5.50;;;18.30;99.90;18.40;101000.00;;;;4935886;28;86629;-63
2022/06/28 03:29:37;;;;;;;9.52;7.55;;;18.20;99.90;18.40;100993.00;;;;4936773;28;87617;-63
2022/06/28 03:32:03;;;;;;;8.02;6.40;;;18.20;99.90;18.40;100981.00;;;;4933484;28;117117;-62
2022/06/28 03:34:28;;;;;;;8.38;6.35;;;18.20;99.90;18.40;100982.00;;;;4915751;28;107586;-63
2022/06/28 03:36:55;;;;;;;8.63;6.60;;;18.30;99.90;18.40;100975.00;;;;4916838;28;87835;-63
2022/06/28 03:39:21;;;;;;;8.50;6.00;;;18.20;99.90;18.40;100971.00;;;;4916820;28;87387;-63
2022/06/28 03:41:46;;;;;;;8.10;5.55;;;18.20;99.90;18.40;100958.00;;;;4921011;28;117409;-63
2022/06/28 03:44:12;;;;;;;11.30;7.32;;;18.20;99.90;18.40;100953.00;;;;4936522;28;104227;-63
2022/06/28 03:46:38;;;;;;;13.32;7.30;;;18.20;99.90;18.40;100962.00;;;;4934479;28;110584;-62
2022/06/28 03:49:03;;;;;;;8.10;6.93;;;18.20;99.90;18.30;100951.00;;;;4935134;28;107848;-63
2022/06/28 03:51:29;;;;;;;7.40;6.60;;;18.20;99.90;18.30;100946.00;;;;4928460;28;90407;-63
2022/06/28 03:54:04;;;;;;;9.10;6.90;;;18.20;99.90;18.30;100950.00;;;;4915719;28;116590;-63
2022/06/28 03:56:30;;;;;;;8.13;6.30;;;18.20;99.90;18.30;100941.00;;;;4914279;28;91200;-63
2022/06/28 03:58:55;;;;;;;9.48;6.90;;;18.20;99.90;18.30;100943.00;;;;4914045;28;95357;-63
2022/06/28 04:01:21;;;;;;;9.63;6.70;;;18.20;99.90;18.30;100951.00;;;;4923632;28;117555;-63
2022/06/28 04:03:47;;;;;;;8.07;7.00;;;18.10;99.90;18.20;100943.00;;;;4934477;28;117621;-62
2022/06/28 04:06:12;;;;;;;8.95;7.10;;;18.10;99.90;18.30;100922.00;;;;4934643;28;90070;-63
2022/06/28 04:08:38;;;;;;;8.23;6.90;;;18.10;99.90;18.30;100932.00;;;;4935091;28;107838;-62
2022/06/28 04:13:51;;;;;;;15.40;8.18;;;18.10;99.90;18.20;100931.00;;;;4933074;28;87433;-62
2022/06/28 04:16:19;;;;;;;9.68;7.95;;;18.10;99.90;18.30;100936.00;;;;4934411;28;98147;-62
2022/06/28 04:18:45;;;;;;;11.93;7.88;;;18.10;99.90;18.30;100931.00;;;;4935777;28;87242;-62
2022/06/28 04:21:14;;;;;;;10.13;7.85;;;18.10;99.90;18.30;100923.00;;;;4926808;28;88493;-63
2022/06/28 04:23:41;;;;;;;8.48;7.13;;;18.10;99.90;18.30;100929.00;;;;4920737;28;88889;-62
2022/06/28 04:26:07;;;;;;;9.65;7.60;;;18.10;99.90;18.30;100930.00;;;;4928533;28;86978;-62
2022/06/28 04:28:32;;;;;;;11.65;7.78;;;18.10;99.90;18.30;100925.00;;;;4915163;28;101029;-63
2022/06/28 04:30:59;;;;;;;14.98;8.63;;;18.10;99.90;18.30;100935.00;;;;4919813;28;100187;-62
2022/06/28 04:33:25;;;;;;;10.48;7.45;;;18.10;99.90;18.30;100937.00;;;;4934930;28;88627;-63
2022/06/28 04:35:55;;;;;;;6.18;5.53;;;18.20;99.90;18.30;100923.00;;;;4928200;28;87400;-63
2022/06/28 04:38:20;;;;;;;10.43;8.30;;;18.20;99.90;18.30;100925.00;;;;4915336;28;87504;-63
2022/06/28 04:40:46;;;;;;;11.23;7.93;;;18.20;99.90;18.30;100919.00;;;;4917418;28;117665;-64
2022/06/28 04:43:12;;;;;;;12.38;8.55;;;18.20;99.90;18.30;100924.00;;;;4933568;28;116935;-63
2022/06/28 04:45:38;;;;;;;13.98;9.05;;;18.20;99.90;18.30;100925.00;;;;4934659;28;86890;-63
2022/06/28 04:48:04;;;;;;;11.52;9.95;;;18.20;99.90;18.30;100925.00;;;;4933695;28;88513;-64
2022/06/28 04:50:30;;;;;;;10.20;7.82;;;18.10;99.90;18.20;100911.00;;;;4933300;28;88828;-64
2022/06/28 04:52:56;;;;;;;10.77;8.85;;;18.10;99.90;18.30;100916.00;;;;4915032;28;87666;-63
2022/06/28 04:55:22;;;;;;;12.77;10.75;;;18.10;99.90;18.20;100909.00;;;;4915353;28;87618;-63
2022/06/28 04:57:48;;;;;;;12.52;8.77;;;18.10;99.90;18.30;100916.00;;;;4913895;28;109116;-63
2022/06/28 05:00:14;;;;;;;9.23;7.43;;;18.10;99.90;18.30;100926.00;;;;4915674;28;109920;-64
2022/06/28 05:02:40;;;;;;;10.07;8.65;;;18.10;99.90;18.30;100920.00;;;;4915371;28;88806;-63
2022/06/28 05:05:08;;;;;;;11.63;9.45;;;18.20;99.90;18.30;100920.00;;;;4919397;28;86685;-63
2022/06/28 05:07:35;;;;;;;11.82;8.85;;;18.10;99.90;18.30;100919.00;;;;4915538;28;87368;-63
2022/06/28 05:10:02;;;;;;;12.60;8.55;;;18.20;99.90;18.30;100930.00;;;;4914032;28;88468;-63
2022/06/28 05:12:28;;;;;;;9.45;8.20;;;18.20;99.90;18.40;100922.00;;;;4918125;28;88716;-64
2022/06/28 05:14:54;;;;;;;12.93;8.27;;;18.20;99.90;18.40;100922.00;;;;4915048;28;102422;-63
2022/06/28 05:17:19;;;;;;;10.57;7.38;;;18.20;99.90;18.40;100927.00;;;;4931878;28;108062;-62
2022/06/28 05:19:45;;;;;;;10.40;8.35;;;18.30;99.90;18.40;100931.00;;;;4931251;28;117905;-62
2022/06/28 05:22:11;;;;;;;9.05;8.15;;;18.30;99.90;18.50;100932.00;;;;4915653;28;116467;-61
2022/06/28 05:24:38;;;;;;;9.77;7.00;;;18.30;99.90;18.50;100935.00;;;;4915228;28;87203;-63
2022/06/28 05:27:04;;;;;;;15.55;8.98;;;18.30;99.90;18.50;100937.00;;;;4914525;28;109265;-62
2022/06/28 05:29:30;;;;;;;12.10;7.00;;;18.40;99.90;18.60;100943.00;;;;4914780;28;87249;-62
2022/06/28 05:31:56;;;;;;;10.52;8.43;;;18.40;99.90;18.60;100951.00;;;;4927845;28;115665;-62
2022/06/28 05:34:22;;;;;;;12.10;8.23;;;18.50;99.90;18.60;100941.00;;;;4932942;28;108756;-63
2022/06/28 05:36:48;;;;;;;7.72;6.93;;;18.50;99.90;18.70;100949.00;;;;4931072;28;88263;-63
2022/06/28 05:39:14;;;;;;;12.77;7.10;;;18.50;99.90;18.70;100948.00;;;;4924452;28;116680;-63
2022/06/28 05:41:41;;;;;;;7.38;6.53;;;18.60;99.90;18.80;100955.00;;;;4921293;28;88115;-63
2022/06/28 05:44:08;;;;;;;7.53;6.20;;;18.60;99.90;18.80;100951.00;;;;4915312;28;86964;-62
2022/06/28 05:46:34;;;;;;;6.07;5.35;;;18.60;99.90;18.80;100957.00;;;;4913158;28;87356;-64
2022/06/28 05:49:12;;;;;;;7.63;5.10;;;18.70;99.90;18.80;100955.00;;;;4914242;28;107652;-63
2022/06/28 05:51:38;;;;;;;7.22;5.13;;;18.70;99.90;18.90;100952.00;;;;4925058;28;87824;-63
2022/06/28 05:54:04;;;;;;;10.65;6.90;;;18.70;99.90;18.90;100959.00;;;;4932117;28;86679;-62
2022/06/28 05:56:32;;;;;;;6.47;5.88;;;18.80;99.90;18.90;100961.00;;;;4919988;28;108832;-62
2022/06/28 05:58:57;;;;;;;6.38;5.03;;;18.80;99.90;19.00;100953.00;;;;4914445;28;88473;-62
2022/06/28 06:01:25;;;;;;;8.05;6.65;;;18.80;99.90;19.00;100967.00;;;;4922051;28;115043;-63
2022/06/28 06:03:51;;;;;;;8.70;5.93;;;18.80;99.90;19.00;100968.00;;;;4928312;28;87557;-62
2022/06/28 06:06:17;;;;;;;8.10;5.15;;;18.80;99.90;19.00;100973.00;;;;4930891;28;102044;-63
2022/06/28 06:08:43;;;;;;;7.65;6.60;;;18.80;99.90;19.00;100970.00;;;;4912966;28;88822;-62
2022/06/28 06:11:09;;;;;;;7.60;5.32;;;18.80;99.90;19.00;100976.00;;;;4920707;28;117593;-63
2022/06/28 06:13:35;;;;;;;9.60;7.30;;;18.80;99.90;19.00;100985.00;;;;4925965;28;99267;-62
2022/06/28 06:16:01;;;;;;;10.50;7.20;;;18.90;99.90;19.10;100981.00;;;;4913430;28;95454;-62
2022/06/28 06:18:26;;;;;;;10.88;6.55;;;18.90;99.90;19.10;100990.00;;;;4913505;28;113408;-63
2022/06/28 06:20:52;;;;;;;7.55;6.47;;;19.00;99.90;19.10;100992.00;;;;4916649;28;98876;-62
2022/06/28 06:23:18;;;;;;;7.72;6.93;;;19.00;99.90;19.20;100999.00;;;;4914265;28;87417;-62
2022/06/28 06:25:44;;;;;;;8.07;5.43;;;19.00;99.90;19.20;101011.00;;;;4912972;28;108197;-62
2022/06/28 06:28:09;;;;;;;9.13;6.40;;;19.10;99.90;19.30;101025.00;;;;4912362;28;89890;-62
2022/06/28 06:30:36;;;;;;;7.75;6.63;;;19.10;99.90;19.30;101027.00;;;;4914328;28;116251;-63
2022/06/28 06:33:02;;;;;;;8.38;5.65;;;19.10;99.90;19.30;101030.00;;;;4932587;28;87539;-62
2022/06/28 06:35:28;;;;;;;9.85;6.78;;;19.20;99.90;19.40;101040.00;;;;4933667;28;87521;-61
2022/06/28 06:38:00;;;;;;;8.35;6.30;;;19.20;99.90;19.40;101047.00;;;;4913831;28;111949;-61
2022/06/28 06:40:30;;;;;;;9.38;5.90;;;19.20;99.90;19.50;101049.00;;;;4896588;28;89203;-61
2022/06/28 06:42:56;;;;;;;8.50;6.32;;;19.30;99.90;19.50;101057.00;;;;4898096;28;86867;-62
2022/06/28 06:45:22;;;;;;;7.53;6.13;;;19.30;99.90;19.60;101052.00;;;;4915721;28;87382;-61
2022/06/28 06:47:48;;;;;;;7.43;6.47;;;19.40;99.90;19.70;101058.00;;;;4932512;28;96081;-61
2022/06/28 06:50:14;;;;;;;7.20;5.88;;;19.50;99.90;19.80;101052.00;;;;4928835;28;88353;-62
2022/06/28 06:52:40;;;;;;;9.77;5.97;;;19.60;99.90;20.00;101058.00;;;;4933106;28;110809;-61
2022/06/28 06:55:06;;;;;;;8.15;5.15;;;19.70;99.90;20.20;101064.00;;;;4915456;28;100177;-61
2022/06/28 06:57:33;;;;;;;7.70;6.20;;;19.90;99.90;20.30;101064.00;;;;4914289;28;93202;-61
2022/06/28 06:59:59;;;;;;;5.30;4.28;;;20.10;99.90;20.40;101070.00;;;;4916647;28;88353;-61
2022/06/28 07:02:24;;;;;;;8.18;5.28;;;20.20;99.90;20.50;101076.00;;;;4924843;28;89410;-62
2022/06/28 07:04:50;;;;;;;5.25;4.53;;;20.30;99.90;20.50;101070.00;;;;4920262;28;109193;-61
2022/06/28 07:07:16;;;;;;;5.82;4.57;;;20.30;99.90;20.60;101079.00;;;;4932950;28;87698;-61
2022/06/28 07:09:42;;;;;;;4.60;3.15;;;20.40;99.90;20.70;101079.00;;;;4916494;28;116554;-62
2022/06/28 07:12:07;;;;;;;5.40;4.60;;;20.50;99.90;20.80;101082.00;;;;4915781;28;110360;-62
2022/06/28 07:14:33;;;;;;;5.90;3.72;;;20.50;99.90;20.80;101084.00;;;;4916594;28;88421;-61
2022/06/28 07:16:59;;;;;;;3.83;3.53;;;20.60;99.90;20.90;101106.00;;;;4927345;28;117407;-61
2022/06/28 07:19:24;;;;;;;6.35;4.63;;;20.60;99.90;21.00;101095.00;;;;4921381;28;116588;-62
2022/06/28 07:21:50;;;;;;;4.90;3.97;;;20.80;99.90;21.10;101110.00;;;;4933110;28;111342;-62
2022/06/28 07:24:18;;;;;;;6.25;3.28;;;20.90;99.90;21.30;101112.00;;;;4934066;28;108598;-61
2022/06/28 07:26:44;;;;;;;5.25;3.60;;;21.00;99.90;21.40;101115.00;;;;4924141;28;101324;-61
2022/06/28 07:29:11;;;;;;;3.17;2.88;;;21.10;99.90;21.60;101130.00;;;;4928264;28;89836;-62
2022/06/28 07:31:36;;;;;;;4.80;3.50;;;21.30;99.90;21.80;101130.00;;;;4936298;28;86528;-62
2022/06/28 07:34:02;;;;;;;3.70;2.53;;;21.40;99.90;22.00;101142.00;;;;4935480;28;87720;-60
2022/06/28 07:36:29;;;;;;;3.40;2.55;;;21.60;99.90;22.20;101143.00;;;;4935173;28;116649;-61
2022/06/28 07:38:55;;;;;;;3.63;2.15;;;21.80;99.90;22.30;101135.00;;;;4924380;28;88158;-60
2022/06/28 07:41:23;;;;;;;4.47;2.25;;;22.00;99.90;22.40;101135.00;;;;4915824;28;109301;-60
2022/06/28 07:43:55;;;;;;;3.53;2.95;;;22.10;99.90;22.40;101135.00;;;;4916774;28;87423;-60
2022/06/28 07:46:20;;;;;;;2.85;2.15;;;22.20;99.90;22.40;101137.00;;;;4916224;28;87535;-61
2022/06/28 07:48:46;;;;;;;5.32;2.28;;;22.20;99.90;22.50;101145.00;;;;4906254;28;117266;-61
2022/06/28 07:53:57;;;;;;;2.55;2.35;;;22.30;99.90;22.60;101154.00;;;;4921072;28;87424;-61
2022/06/28 07:56:24;;;;;;;3.70;2.78;;;22.30;99.90;22.60;101157.00;;;;4882159;28;109763;-61
2022/06/28 07:58:49;;;;;;;2.80;2.35;;;22.40;99.90;22.70;101168.00;;;;4889537;28;88013;-61
2022/06/28 08:01:15;;;;;;;4.72;1.92;;;22.40;99.90;22.70;101176.00;;;;4881918;28;107797;-61
2022/06/28 08:03:41;;;;;;;3.35;2.40;;;22.40;99.90;22.70;101177.00;;;;4879517;28;108476;-62
2022/06/28 08:06:07;;;;;;;3.45;2.60;;;22.50;99.90;22.80;101171.00;;;;4879841;28;88921;-61
2022/06/28 08:08:33;;;;;;;4.45;2.63;;;22.50;99.90;22.80;101176.00;;;;4885181;28;117190;-61
2022/06/28 08:10:58;;;;;;;2.45;2.20;;;22.60;99.90;23.00;101174.00;;;;4898733;28;109966;-61
2022/06/28 08:13:25;;;;;;;3.53;1.52;;;22.70;99.90;23.30;101177.00;;;;4898141;28;88013;-61
2022/06/28 08:15:51;;;;;;;3.85;2.47;;;22.90;99.90;23.70;101170.00;;;;4898350;28;88558;-61
2022/06/28 08:18:17;;;;;;;3.55;2.30;;;23.30;99.90;24.00;101172.00;;;;4892005;28;118898;-60
2022/06/28 08:20:43;;;;;;;4.03;1.92;;;23.60;99.90;24.20;101189.00;;;;4880698;28;87156;-62
2022/06/28 08:23:09;;;;;;;3.33;2.45;;;23.80;99.90;24.40;101185.00;;;;4880178;28;95527;-61
2022/06/28 08:25:35;;;;;;;3.78;2.28;;;24.10;99.90;24.50;101186.00;;;;4895488;28;88908;-61
2022/06/28 08:28:01;;;;;;;2.03;1.60;;;24.20;99.90;24.60;101189.00;;;;4879067;28;88937;-62
2022/06/28 08:30:27;;;;;;;4.53;2.17;;;24.30;99.90;24.70;101188.00;;;;4898022;28;87366;-62
2022/06/28 08:32:54;;;;;;;2.90;1.98;;;24.40;99.90;24.90;101189.00;;;;4895502;28;87613;-59
2022/06/28 08:35:20;;;;;;;2.45;1.73;;;24.60;99.90;25.00;101191.00;;;;4897464;28;88115;-61
2022/06/28 08:37:46;;;;;;;3.28;2.65;;;24.70;99.90;25.00;101199.00;;;;4890046;28;88226;-61
2022/06/28 08:40:12;;;;;;;2.33;1.52;;;24.70;99.90;25.00;101204.00;;;;4896323;28;87860;-61
2022/06/28 08:42:48;;;;;;;2.25;1.90;;;24.70;99.90;25.00;101194.00;;;;4880604;28;87748;-59
2022/06/28 08:45:16;;;;;;;3.08;2.20;;;24.70;99.90;25.00;101200.00;;;;4897380;28;88213;-59
2022/06/28 08:47:46;;;;;;;1.70;1.33;;;24.70;99.90;24.90;101207.00;;;;4897859;28;88101;-61
2022/06/28 08:50:19;;;;;;;3.80;1.65;;;24.70;99.90;24.90;101195.00;;;;4879942;28;88456;-62
2022/06/28 08:52:45;;;;;;;3.20;2.17;;;24.60;99.90;24.90;101202.00;;;;4877528;28;102390;-61
2022/06/28 08:55:13;;;;;;;1.58;1.48;;;24.60;99.90;24.90;101203.00;;;;4861131;28;88736;-61
2022/06/28 08:57:41;;;;;;;5.35;1.83;;;24.60;99.90;24.90;101207.00;;;;4878311;28;88256;-62
2022/06/28 09:00:10;;;;;;;1.73;1.60;;;24.60;99.90;24.90;101203.00;;;;4884851;28;88459;-62
2022/06/28 09:02:35;;;;;;;3.65;2.63;;;24.60;99.90;25.00;101207.00;;;;4897550;28;92894;-62
2022/06/28 09:05:03;;;;;;;2.60;1.90;;;24.70;99.90;25.20;101202.00;;;;4896666;28;111393;-62
2022/06/28 09:07:29;;;;;;;3.75;2.25;;;24.80;99.90;25.50;101199.00;;;;4879235;28;87900;-62
2022/06/28 09:09:55;;;;;;;4.05;2.60;;;25.10;99.90;25.70;101191.00;;;;4892509;28;87190;-62
2022/06/28 09:12:21;;;;;;;3.35;2.38;;;25.30;99.90;25.90;101202.00;;;;4894733;28;87863;-62
2022/06/28 09:14:48;;;;;;;3.08;2.33;;;25.50;99.90;26.00;101196.00;;;;4897193;28;107311;-62
2022/06/28 09:17:27;;;;;;;2.75;1.85;;;25.70;99.90;26.20;101208.00;;;;4894470;28;88874;-61
2022/06/28 09:20:11;;;;;;;2.03;1.73;;;25.90;99.90;26.50;101201.00;;;;4883385;28;87898;-63
2022/06/28 09:22:42;;;;;;;2.65;1.92;;;26.10;98.80;26.50;101196.00;;;;4879511;28;87945;-61
2022/06/28 09:25:28;;;;;;;2.10;1.33;;;26.20;94.50;26.60;101188.00;;;;4878779;28;100962;-61
2022/06/28 09:28:00;;;;;;;2.10;1.67;;;26.30;93.50;26.80;101185.00;;;;4870610;28;88466;-61
2022/06/28 09:30:31;;;;;;;1.35;1.25;;;26.40;93.90;27.10;101184.00;;;;4893316;28;87754;-62
2022/06/28 09:32:58;;;;;;;2.72;1.88;;;26.70;93.80;27.30;101191.00;;;;4896151;28;87759;-63
2022/06/28 09:35:25;;;;;;;1.85;1.52;;;27.00;93.30;27.60;101191.00;;;;4893282;28;87854;-62
2022/06/28 09:37:52;;;;;;;1.35;1.25;;;27.20;92.50;27.70;101194.00;;;;4889941;28;116737;-62
2022/06/28 09:40:56;;;;;;;2.50;1.50;;;27.30;91.80;27.80;101197.00;;;;4893660;28;93973;-62
2022/06/28 09:43:21;;;;;;;2.13;1.52;;;27.40;90.90;27.80;101193.00;;;;4904225;28;103901;-62
2022/06/28 09:45:47;;;;;;;1.50;1.35;;;27.50;90.30;27.80;101192.00;;;;4894563;28;88021;-62
2022/06/28 09:48:19;;;;;;;2.85;1.70;;;27.50;89.20;27.70;101183.00;;;;4882901;28;88573;-62
2022/06/28 09:50:45;;;;;;;3.25;2.20;;;27.40;88.30;27.70;101186.00;;;;4887306;28;87807;-61
2022/06/28 09:53:20;;;;;;;2.65;1.38;;;27.40;87.00;27.60;101193.00;;;;4878185;28;87759;-62
2022/06/28 09:55:45;;;;;;;2.60;1.85;;;27.30;84.70;27.40;101195.00;;;;4877082;28;88330;-62
2022/06/28 09:58:11;;;;;;;1.58;1.48;;;27.20;82.90;27.20;101188.00;;;;4877257;28;88240;-61
2022/06/28 10:00:41;;;;;;;3.10;1.50;;;27.00;83.00;27.10;101183.00;;;;4878826;28;109814;-62
2022/06/28 10:03:07;;;;;;;1.65;1.42;;;26.90;83.40;27.10;101184.00;;;;4875728;28;88086;-62
2022/06/28 10:05:33;;;;;;;3.78;1.90;;;26.90;84.20;27.30;101181.00;;;;4875932;28;106766;-62
2022/06/28 10:07:59;;;;;;;1.92;1.38;;;26.90;84.10;27.40;101181.00;;;;4876505;28;88731;-61
2022/06/28 10:10:25;;;;;;;4.22;2.10;;;27.10;83.40;27.50;101173.00;;;;4877018;28;87709;-62
2022/06/28 10:16:10;;;;;;;6.57;1.95;;;27.20;74.10;27.70;101182.00;;;;4876882;28;87990;-62
2022/06/28 10:18:37;;;;;;;3.38;1.60;;;27.20;73.50;27.90;101179.00;;;;4844070;28;87867;-61
2022/06/28 10:21:02;;;;;;;1.70;1.38;;;27.40;72.00;28.10;101170.00;;;;4893097;28;100809;-62
2022/06/28 10:23:38;;;;;;;3.83;1.63;;;27.60;71.30;28.40;101185.00;;;;4894504;28;95464;-61
2022/06/28 10:26:15;;;;;;;3.13;2.15;;;27.90;72.40;28.90;101174.00;;;;4895125;28;87778;-61
2022/06/28 10:29:02;;;;;;;2.45;1.80;;;28.30;71.40;29.20;101164.00;;;;4891802;28;103641;-62
2022/06/28 10:31:29;;;;;;;2.60;1.65;;;28.60;67.20;29.40;101170.00;;;;4875969;28;87641;-62
2022/06/28 10:34:12;;;;;;;2.35;1.63;;;28.80;65.70;29.30;101160.00;;;;4893676;28;88771;-61
2022/06/28 10:36:44;;;;;;;2.80;1.88;;;28.80;61.40;29.30;101156.00;;;;4896362;28;90400;-62
2022/06/28 10:39:31;;;;;;;2.53;1.85;;;28.80;62.40;29.30;101161.00;;;;4898501;28;87870;-59
2022/06/28 10:42:00;;;;;;;2.45;1.67;;;28.80;59.90;29.20;101153.00;;;;4898744;28;87928;-61
2022/06/28 10:44:32;;;;;;;2.50;1.60;;;28.80;56.70;29.10;101163.00;;;;4898981;28;88793;-61
2022/06/28 10:47:00;;;;;;;3.42;1.75;;;28.70;57.50;29.20;101167.00;;;;4898124;28;98726;-64
2022/06/28 10:49:52;;;;;;;2.45;1.50;;;28.70;58.80;29.40;101166.00;;;;4896711;28;120009;-62
2022/06/28 10:52:25;;;;;;;7.13;1.30;;;28.80;58.50;29.40;101174.00;;;;4899263;28;86918;-62
2022/06/28 10:54:51;;;;;;;3.75;1.92;;;28.90;58.80;29.20;101179.00;;;;4898677;28;87794;-61
2022/06/28 10:57:21;;;;;;;2.67;1.85;;;28.80;58.60;29.10;101181.00;;;;4898037;28;88617;-60
2022/06/28 10:59:50;;;;;;;1.42;1.33;;;28.70;59.20;29.00;101173.00;;;;4897619;28;89006;-61